sensor_id;sensor_type;location;lat;lon;timestamp;pressure;altitude;pressure_sealevel;temperature
69785;BMP280;14177;51.520;6.764;2022-09-09T05:39:26;100530.28;;;17.13
69785;BMP280;14177;51.520;6.764;2022-09-09T05:48:07;100531.03;;;17.15
69785;BMP280;14177;51.520;6.764;2022-09-09T05:52:39;100532.72;;;17.16
69785;BMP280;14177;51.520;6.764;2022-09-09T06:38:20;100554.22;;;17.77
69785;BMP280;14177;51.520;6.764;2022-09-09T07:01:03;100554.50;;;18.13
69785;BMP280;14177;51.520;6.764;2022-09-09T07:09:49;100568.75;;;18.61
69785;BMP280;14177;51.520;6.764;2022-09-09T07:26:42;100565.31;;;18.98
69785;BMP280;14177;51.520;6.764;2022-09-09T07:30:52;100571.25;;;19.14
69785;BMP280;14177;51.520;6.764;2022-09-09T07:48:53;100575.25;;;19.68
69785;BMP280;14177;51.520;6.764;2022-09-09T07:51:48;100564.28;;;19.86
69785;BMP280;14177;51.520;6.764;2022-09-09T07:54:42;100561.06;;;19.94
69785;BMP280;14177;51.520;6.764;2022-09-09T07:57:49;100572.78;;;19.90
69785;BMP280;14177;51.520;6.764;2022-09-09T08:01:46;100567.28;;;19.93
69785;BMP280;14177;51.520;6.764;2022-09-09T08:04:43;100586.19;;;19.99
69785;BMP280;14177;51.520;6.764;2022-09-09T08:07:46;100571.78;;;20.16
69785;BMP280;14177;51.520;6.764;2022-09-09T08:10:48;100571.59;;;20.30
69785;BMP280;14177;51.520;6.764;2022-09-09T08:13:46;100576.38;;;20.25
69785;BMP280;14177;51.520;6.764;2022-09-09T08:16:36;100583.09;;;20.05
69785;BMP280;14177;51.520;6.764;2022-09-09T08:19:43;100573.13;;;19.85
69785;BMP280;14177;51.520;6.764;2022-09-09T08:22:32;100580.75;;;19.77
69785;BMP280;14177;51.520;6.764;2022-09-09T08:25:10;100581.06;;;19.73
69785;BMP280;14177;51.520;6.764;2022-09-09T08:27:57;100567.44;;;19.79
69785;BMP280;14177;51.520;6.764;2022-09-09T08:31:47;100581.84;;;19.98
69785;BMP280;14177;51.520;6.764;2022-09-09T08:39:34;100569.25;;;20.38
69785;BMP280;14177;51.520;6.764;2022-09-09T08:43:10;100586.94;;;20.83
69785;BMP280;14177;51.520;6.764;2022-09-09T08:54:34;100580.00;;;21.91
69785;BMP280;14177;51.520;6.764;2022-09-09T08:57:49;100570.84;;;22.06
69785;BMP280;14177;51.520;6.764;2022-09-09T09:13:01;100577.28;;;21.27
69785;BMP280;14177;51.520;6.764;2022-09-09T09:15:52;100572.47;;;21.10
69785;BMP280;14177;51.520;6.764;2022-09-09T09:18:46;100588.75;;;20.93
69785;BMP280;14177;51.520;6.764;2022-09-09T09:21:39;100587.41;;;20.88
69785;BMP280;14177;51.520;6.764;2022-09-09T09:24:20;100590.81;;;20.77
69785;BMP280;14177;51.520;6.764;2022-09-09T09:26:53;100596.19;;;20.65
69785;BMP280;14177;51.520;6.764;2022-09-09T09:29:35;100595.25;;;20.66
69785;BMP280;14177;51.520;6.764;2022-09-09T09:33:02;100588.63;;;20.60
69785;BMP280;14177;51.520;6.764;2022-09-09T09:35:44;100589.19;;;20.53
69785;BMP280;14177;51.520;6.764;2022-09-09T09:39:09;100589.88;;;20.44
69785;BMP280;14177;51.520;6.764;2022-09-09T09:42:28;100593.22;;;20.35
69785;BMP280;14177;51.520;6.764;2022-09-09T09:46:17;100599.53;;;20.32
69785;BMP280;14177;51.520;6.764;2022-09-09T09:49:28;100585.97;;;20.26
69785;BMP280;14177;51.520;6.764;2022-09-09T09:53:25;100592.44;;;20.22
69785;BMP280;14177;51.520;6.764;2022-09-09T09:56:13;100592.53;;;20.20
69785;BMP280;14177;51.520;6.764;2022-09-09T10:00:13;100592.56;;;20.31
69785;BMP280;14177;51.520;6.764;2022-09-09T10:07:24;100596.13;;;21.55
69785;BMP280;14177;51.520;6.764;2022-09-09T10:33:55;100562.28;;;21.60
69785;BMP280;14177;51.520;6.764;2022-09-09T10:52:36;100571.34;;;20.90
69785;BMP280;14177;51.520;6.764;2022-09-09T10:55:28;100573.84;;;20.81
69785;BMP280;14177;51.520;6.764;2022-09-09T10:58:12;100567.72;;;20.81
69785;BMP280;14177;51.520;6.764;2022-09-09T11:01:30;100573.66;;;20.72
69785;BMP280;14177;51.520;6.764;2022-09-09T11:04:40;100560.25;;;20.75
69785;BMP280;14177;51.520;6.764;2022-09-09T11:07:58;100553.84;;;20.89
69785;BMP280;14177;51.520;6.764;2022-09-09T11:11:42;100553.25;;;21.08
69785;BMP280;14177;51.520;6.764;2022-09-09T11:15:59;100555.66;;;21.11
69785;BMP280;14177;51.520;6.764;2022-09-09T11:18:49;100550.50;;;21.09
69785;BMP280;14177;51.520;6.764;2022-09-09T11:22:58;100549.75;;;20.96
69785;BMP280;14177;51.520;6.764;2022-09-09T11:27:02;100551.69;;;20.94
69785;BMP280;14177;51.520;6.764;2022-09-09T11:37:17;100542.47;;;21.22
69785;BMP280;14177;51.520;6.764;2022-09-09T11:40:23;100558.91;;;21.36
69785;BMP280;14177;51.520;6.764;2022-09-09T11:43:20;100537.03;;;21.45
69785;BMP280;14177;51.520;6.764;2022-09-09T11:46:59;100538.84;;;21.45
69785;BMP280;14177;51.520;6.764;2022-09-09T11:49:54;100538.00;;;21.44
69785;BMP280;14177;51.520;6.764;2022-09-09T11:53:29;100543.75;;;21.27
69785;BMP280;14177;51.520;6.764;2022-09-09T12:01:48;100541.75;;;21.20
69785;BMP280;14177;51.520;6.764;2022-09-09T12:09:06;100551.22;;;21.22
69785;BMP280;14177;51.520;6.764;2022-09-09T12:12:49;100541.38;;;21.24
69785;BMP280;14177;51.520;6.764;2022-09-09T12:16:36;100532.00;;;21.20
69785;BMP280;14177;51.520;6.764;2022-09-09T12:32:26;100542.56;;;21.20
69785;BMP280;14177;51.520;6.764;2022-09-09T12:35:38;100537.03;;;21.23
69785;BMP280;14177;51.520;6.764;2022-09-09T12:42:59;100581.13;;;21.34
69785;BMP280;14177;51.520;6.764;2022-09-09T13:07:44;100580.75;;;20.71
69785;BMP280;14177;51.520;6.764;2022-09-09T13:12:22;100570.94;;;20.50
69785;BMP280;14177;51.520;6.764;2022-09-09T13:32:32;100543.75;;;21.27
69785;BMP280;14177;51.520;6.764;2022-09-09T13:35:32;100551.22;;;21.22
69785;BMP280;14177;51.520;6.764;2022-09-09T13:51:32;100521.16;;;22.72
69785;BMP280;14177;51.520;6.764;2022-09-09T14:36:33;100518.69;;;21.11
69785;BMP280;14177;51.520;6.764;2022-09-09T14:44:10;100561.56;;;20.69
69785;BMP280;14177;51.520;6.764;2022-09-09T14:47:16;100568.97;;;19.94
69785;BMP280;14177;51.520;6.764;2022-09-09T14:51:11;100562.91;;;19.20
69785;BMP280;14177;51.520;6.764;2022-09-09T14:54:27;100572.53;;;18.70
69785;BMP280;14177;51.520;6.764;2022-09-09T15:14:03;100559.56;;;18.16
69785;BMP280;14177;51.520;6.764;2022-09-09T15:18:04;100559.75;;;18.13
69785;BMP280;14177;51.520;6.764;2022-09-09T15:30:27;100530.91;;;17.99
69785;BMP280;14177;51.520;6.764;2022-09-09T18:31:27;100596.44;;;17.88
69785;BMP280;14177;51.520;6.764;2022-09-09T18:35:24;100617.44;;;17.88
69785;BMP280;14177;51.520;6.764;2022-09-09T18:39:26;100618.38;;;17.87
69785;BMP280;14177;51.520;6.764;2022-09-09T19:03:44;100655.88;;;18.17
69785;BMP280;14177;51.520;6.764;2022-09-09T19:06:31;100654.63;;;18.22
69785;BMP280;14177;51.520;6.764;2022-09-09T19:09:27;100667.31;;;18.30
69785;BMP280;14177;51.520;6.764;2022-09-09T19:12:52;100674.25;;;18.31
69785;BMP280;14177;51.520;6.764;2022-09-09T19:25:34;100692.50;;;18.06
